Ider, Alabama
Current Conditions -  °F | °C
As of 2:35 PM on Friday 28 Nov 2014 (Local Time) from K4A9 Reporting Station
Clear Clear  
Wind Chill: 48°   Ceiling: Unl
Heat Index: 48°   Visibility: 10mi
Dew Point:   Wind: 0mph
Humidity: 20%   Direction: NA
Pressure: 30.27"   Gusts: NA
Location:  34.71°N, 85.68°W
Report Text: K4A9 282035Z AUTO 00000KT 10SM CLR 09/M13 A3027 RMK AO2
Loading
Personal Weather Stations






























Interactive Weather Map New forecast layout! Learn more

10-Day Weather Forecast

Advertisements
Track Severe Weather on mobile